createdAt,value
2022-09-28T00:00:44.311Z,87.62
2022-09-28T00:03:11.460Z,87.68
2022-09-28T00:05:38.665Z,87.75
2022-09-28T00:08:05.805Z,87.78
2022-09-28T00:10:32.858Z,88.01
2022-09-28T00:13:01.413Z,87.00
2022-09-28T00:15:29.198Z,87.03
2022-09-28T00:17:56.312Z,86.61
2022-09-28T00:20:23.448Z,86.91
2022-09-28T00:22:50.608Z,88.77
2022-09-28T00:25:17.843Z,91.44
2022-09-28T00:27:49.471Z,92.81
2022-09-28T00:30:16.671Z,93.40
2022-09-28T00:33:09.644Z,92.12
2022-09-28T00:35:36.731Z,93.03
2022-09-28T00:38:03.925Z,94.22
2022-09-28T00:40:31.136Z,94.88
2022-09-28T00:42:58.260Z,94.08
2022-09-28T00:45:26.160Z,92.79
2022-09-28T00:47:58.342Z,92.64
2022-09-28T00:50:34.092Z,92.35
2022-09-28T00:53:05.106Z,93.32
2022-09-28T00:55:32.187Z,94.32
2022-09-28T00:58:01.380Z,94.75
2022-09-28T01:00:28.657Z,95.91
2022-09-28T01:02:56.291Z,96.13
2022-09-28T01:05:24.233Z,94.90
2022-09-28T01:07:51.581Z,93.88
2022-09-28T01:10:18.753Z,94.24
2022-09-28T01:12:45.881Z,93.61
2022-09-28T01:15:14.717Z,92.62
2022-09-28T01:17:42.798Z,92.71
2022-09-28T01:20:33.770Z,93.57
2022-09-28T01:23:19.174Z,93.42
2022-09-28T01:25:51.994Z,93.56
2022-09-28T01:28:20.730Z,93.66
2022-09-28T01:31:06.642Z,93.12
2022-09-28T01:33:57.053Z,92.56
2022-09-28T01:36:30.317Z,92.35
2022-09-28T01:39:02.474Z,91.35
2022-09-28T01:41:30.418Z,91.80
2022-09-28T01:44:02.883Z,91.50
2022-09-28T01:46:37.200Z,91.88
2022-09-28T01:49:24.607Z,92.78
2022-09-28T01:51:55.433Z,91.32
2022-09-28T01:54:34.438Z,90.63
2022-09-28T01:57:08.797Z,88.78
2022-09-28T01:59:38.466Z,88.31
2022-09-28T02:02:18.741Z,88.33
2022-09-28T02:04:49.579Z,88.19
2022-09-28T02:07:21.419Z,85.48
2022-09-28T02:09:55.832Z,85.96
2022-09-28T02:12:43.600Z,86.70
2022-09-28T02:15:15.018Z,87.79
2022-09-28T02:17:42.720Z,86.76
2022-09-28T02:20:13.133Z,87.29
2022-09-28T02:22:51.515Z,87.57
2022-09-28T02:25:52.227Z,86.86
2022-09-28T02:28:21.037Z,86.59
2022-09-28T02:30:50.200Z,87.39
2022-09-28T02:33:20.431Z,87.59
2022-09-28T02:35:47.735Z,87.83
2022-09-28T02:38:15.500Z,88.89
2022-09-28T02:40:46.015Z,90.70
2022-09-28T02:43:16.223Z,90.98
2022-09-28T02:46:15.887Z,90.67
2022-09-28T02:49:04.941Z,90.66
2022-09-28T02:52:01.041Z,92.03
2022-09-28T02:54:41.927Z,92.60
2022-09-28T02:57:18.658Z,92.22
2022-09-28T02:59:54.067Z,93.18
2022-09-28T03:02:46.701Z,93.57
2022-09-28T03:05:13.796Z,93.67
2022-09-28T03:07:48.641Z,93.31
2022-09-28T03:10:39.038Z,91.67
2022-09-28T03:13:06.389Z,91.46
2022-09-28T03:15:35.470Z,91.72
2022-09-28T03:18:02.658Z,92.56
2022-09-28T03:20:30.413Z,92.41
2022-09-28T03:23:22.891Z,92.67
2022-09-28T03:25:44.589Z,92.83
2022-09-28T03:28:11.735Z,93.54
2022-09-28T03:30:43.043Z,93.24
2022-09-28T03:33:11.169Z,92.19
2022-09-28T03:35:38.880Z,90.46
2022-09-28T03:38:06.009Z,89.50
2022-09-28T03:40:35.710Z,88.69
2022-09-28T03:43:02.897Z,88.62
2022-09-28T03:45:30.110Z,88.21
2022-09-28T03:47:57.705Z,88.82
2022-09-28T03:50:24.817Z,89.08
2022-09-28T03:52:51.932Z,89.02
2022-09-28T03:55:19.076Z,88.82
2022-09-28T03:57:52.609Z,89.86
2022-09-28T04:00:19.857Z,91.12
2022-09-28T04:02:46.941Z,91.05
2022-09-28T04:05:14.048Z,91.27
2022-09-28T04:07:41.161Z,91.85
2022-09-28T04:10:08.595Z,92.79
2022-09-28T04:12:35.703Z,93.20
2022-09-28T04:15:02.985Z,92.85
2022-09-28T04:17:48.620Z,92.91
2022-09-28T04:20:33.253Z,92.29
2022-09-28T04:23:03.796Z,92.55
2022-09-28T04:25:31.293Z,92.50
2022-09-28T04:28:17.241Z,92.51
2022-09-28T04:30:46.290Z,92.70
2022-09-28T04:33:13.460Z,92.83
2022-09-28T04:35:40.548Z,93.12
2022-09-28T04:38:07.656Z,95.38
2022-09-28T04:40:35.883Z,95.80
2022-09-28T04:43:03.047Z,95.89
2022-09-28T04:45:31.246Z,97.36
2022-09-28T04:48:06.230Z,97.07
2022-09-28T04:51:11.504Z,94.38
2022-09-28T04:53:38.626Z,94.08
2022-09-28T04:56:07.269Z,94.66
2022-09-28T04:58:35.545Z,94.12
2022-09-28T05:01:05.309Z,93.80
2022-09-28T05:03:58.441Z,94.10
2022-09-28T05:06:45.841Z,94.10
2022-09-28T05:09:13.604Z,93.87
2022-09-28T05:11:41.973Z,93.32
2022-09-28T05:14:14.593Z,93.44
2022-09-28T05:16:42.257Z,93.78
2022-09-28T05:19:21.464Z,94.12
2022-09-28T05:21:49.853Z,93.76
2022-09-28T05:24:16.937Z,94.13
2022-09-28T05:26:49.539Z,94.23
2022-09-28T05:29:17.210Z,93.45
2022-09-28T05:31:53.443Z,93.95
2022-09-28T05:34:39.758Z,93.72
2022-09-28T05:37:07.086Z,93.90
2022-09-28T05:39:34.580Z,94.10
2022-09-28T05:42:01.701Z,93.63
2022-09-28T05:44:29.673Z,93.28
2022-09-28T05:46:57.184Z,92.67
2022-09-28T05:49:24.373Z,94.74
2022-09-28T05:51:51.519Z,95.23
2022-09-28T05:54:18.796Z,96.00
2022-09-28T05:56:47.182Z,96.66
2022-09-28T05:59:14.577Z,96.38
2022-09-28T06:01:42.125Z,95.90
2022-09-28T06:04:11.127Z,96.20
2022-09-28T06:06:38.830Z,95.01
2022-09-28T06:09:05.982Z,93.99
2022-09-28T06:11:54.311Z,93.77
2022-09-28T06:14:31.097Z,94.04
2022-09-28T06:16:58.309Z,93.24
2022-09-28T06:19:25.409Z,93.18
2022-09-28T06:22:11.473Z,92.10
2022-09-28T06:24:45.501Z,87.86
2022-09-28T06:27:12.661Z,85.20
2022-09-28T06:32:24.483Z,82.49
2022-09-28T06:34:56.165Z,77.80
2022-09-28T06:37:44.673Z,79.60
2022-09-28T06:40:11.786Z,77.18
2022-09-28T06:42:38.908Z,76.81
2022-09-28T06:45:30.296Z,74.10
2022-09-28T06:48:10.441Z,75.16
2022-09-28T06:50:42.149Z,75.33
2022-09-28T06:53:29.065Z,74.04
2022-09-28T06:56:10.430Z,74.51
2022-09-28T06:58:37.804Z,74.53
2022-09-28T07:01:05.740Z,74.94
2022-09-28T07:03:56.609Z,73.51
2022-09-28T07:06:46.810Z,73.79
2022-09-28T07:09:49.513Z,74.07
2022-09-28T07:12:36.238Z,73.97
2022-09-28T07:15:12.302Z,73.95
2022-09-28T07:17:53.290Z,71.93
2022-09-28T07:20:25.671Z,72.62
2022-09-28T07:22:53.941Z,72.34
2022-09-28T07:25:23.090Z,72.59
2022-09-28T07:28:09.447Z,72.21
2022-09-28T07:31:10.334Z,71.68
2022-09-28T07:33:55.336Z,71.19
2022-09-28T07:36:39.507Z,71.30
2022-09-28T07:39:06.725Z,71.55
2022-09-28T07:41:34.164Z,70.14
2022-09-28T07:44:07.093Z,68.79
2022-09-28T07:46:37.052Z,69.22
2022-09-28T07:49:36.384Z,68.88
2022-09-28T07:52:28.499Z,67.93
2022-09-28T07:55:07.852Z,66.79
2022-09-28T07:57:48.112Z,66.19
2022-09-28T08:00:23.971Z,65.51
2022-09-28T08:02:51.504Z,64.68
2022-09-28T08:05:22.701Z,64.52
2022-09-28T08:07:49.943Z,63.77
2022-09-28T08:10:17.923Z,63.71
2022-09-28T08:12:47.172Z,63.84
2022-09-28T08:15:29.577Z,62.86
2022-09-28T08:18:09.483Z,62.66
2022-09-28T08:20:56.233Z,62.25
2022-09-28T08:23:23.924Z,61.77
2022-09-28T08:25:54.192Z,61.68
2022-09-28T08:28:24.014Z,61.73
2022-09-28T08:30:54.445Z,60.90
2022-09-28T08:34:05.445Z,61.25
2022-09-28T08:36:52.962Z,60.03
2022-09-28T08:39:38.771Z,60.08
2022-09-28T08:42:40.897Z,61.28
2022-09-28T08:45:36.391Z,60.32
2022-09-28T08:48:34.121Z,59.10
2022-09-28T08:51:22.026Z,57.17
2022-09-28T08:54:11.089Z,55.98
2022-09-28T08:56:55.261Z,55.46
2022-09-28T08:59:24.765Z,55.12
2022-09-28T09:02:03.665Z,55.54
2022-09-28T09:04:32.868Z,55.05
2022-09-28T09:07:07.129Z,53.89
2022-09-28T09:09:44.128Z,53.08
2022-09-28T09:12:19.333Z,53.34
2022-09-28T09:15:02.643Z,53.92
2022-09-28T09:17:50.308Z,54.58
2022-09-28T09:20:31.829Z,54.68
2022-09-28T09:23:28.427Z,54.41
2022-09-28T09:25:59.962Z,53.46
2022-09-28T09:28:33.184Z,53.61
2022-09-28T09:31:27.154Z,53.87
2022-09-28T09:34:16.330Z,53.39
2022-09-28T09:37:06.838Z,54.13
2022-09-28T09:40:02.280Z,53.55
2022-09-28T09:42:54.191Z,53.94
2022-09-28T09:45:45.664Z,54.86
2022-09-28T09:48:38.931Z,56.12
2022-09-28T09:51:16.625Z,56.13
2022-09-28T09:53:48.696Z,56.41
2022-09-28T09:56:24.226Z,55.20
2022-09-28T09:59:08.187Z,55.05
2022-09-28T10:01:55.973Z,55.50
2022-09-28T10:04:50.192Z,55.18
2022-09-28T10:07:24.692Z,54.15
2022-09-28T10:09:55.743Z,54.67
2022-09-28T10:12:43.091Z,54.89
2022-09-28T10:15:15.104Z,54.11
2022-09-28T10:17:52.668Z,53.42
2022-09-28T10:20:39.735Z,53.26
2022-09-28T10:23:23.153Z,54.11
2022-09-28T10:25:52.515Z,54.03
2022-09-28T10:28:26.104Z,52.83
2022-09-28T10:30:53.459Z,53.29
2022-09-28T10:33:33.956Z,54.01
2022-09-28T10:36:04.940Z,53.14
2022-09-28T10:38:33.125Z,52.64
2022-09-28T10:41:16.674Z,52.96
2022-09-28T10:44:06.803Z,52.23
2022-09-28T10:47:05.545Z,52.49
2022-09-28T10:49:46.522Z,52.89
2022-09-28T10:52:29.428Z,53.13
2022-09-28T10:54:56.821Z,52.57
2022-09-28T10:57:35.042Z,52.98
2022-09-28T11:00:07.247Z,53.15
2022-09-28T11:02:41.360Z,53.50
2022-09-28T11:05:24.491Z,53.74
2022-09-28T11:07:57.945Z,53.53
2022-09-28T11:10:32.876Z,53.28
2022-09-28T11:13:10.457Z,53.35
2022-09-28T11:15:42.273Z,53.17
2022-09-28T11:18:20.028Z,53.20
2022-09-28T11:20:47.229Z,53.22
2022-09-28T11:23:22.446Z,54.20
2022-09-28T11:25:58.369Z,54.17
2022-09-28T11:28:29.378Z,54.57
2022-09-28T11:30:57.378Z,54.80
2022-09-28T11:33:31.342Z,54.54
2022-09-28T11:36:44.199Z,53.18
2022-09-28T11:39:14.026Z,53.73
2022-09-28T11:42:06.464Z,53.84
2022-09-28T11:44:39.165Z,53.72
2022-09-28T11:47:09.487Z,54.31
2022-09-28T11:49:41.556Z,54.33
2022-09-28T11:52:14.561Z,53.73
2022-09-28T11:54:44.281Z,54.26
2022-09-28T11:57:14.892Z,53.72
2022-09-28T12:00:02.326Z,53.57
2022-09-28T12:02:37.221Z,53.90
2022-09-28T12:05:17.104Z,53.90
2022-09-28T12:07:53.108Z,54.29
2022-09-28T12:10:47.527Z,53.86
2022-09-28T12:13:20.535Z,53.27
2022-09-28T12:16:32.606Z,53.35
2022-09-28T12:18:57.044Z,53.36
2022-09-28T12:21:33.460Z,53.35
2022-09-28T12:24:03.791Z,53.39
2022-09-28T12:26:42.120Z,53.00
2022-09-28T12:29:15.644Z,53.28
2022-09-28T12:32:02.754Z,53.80
2022-09-28T12:34:29.926Z,53.73
2022-09-28T12:37:06.170Z,53.84
2022-09-28T12:39:56.374Z,53.63
2022-09-28T12:42:35.744Z,53.90
2022-09-28T12:45:11.260Z,53.72
2022-09-28T12:48:05.032Z,54.00
2022-09-28T12:50:52.607Z,54.24
2022-09-28T12:53:41.816Z,54.92
2022-09-28T12:56:21.560Z,54.54
2022-09-28T12:59:10.571Z,54.55
2022-09-28T13:01:43.676Z,54.43
2022-09-28T13:04:35.120Z,54.29
2022-09-28T13:07:08.028Z,53.82
2022-09-28T13:09:54.028Z,52.69
2022-09-28T13:12:26.070Z,53.38
2022-09-28T13:15:27.426Z,54.11
2022-09-28T13:18:03.778Z,54.45
2022-09-28T13:20:37.820Z,54.58
2022-09-28T13:23:08.041Z,54.27
2022-09-28T13:25:36.367Z,53.98
2022-09-28T13:28:05.067Z,54.88
2022-09-28T13:30:38.602Z,54.94
2022-09-28T13:33:07.426Z,53.99
2022-09-28T13:35:35.093Z,54.21
2022-09-28T13:38:17.575Z,53.75
2022-09-28T13:41:03.342Z,54.16
2022-09-28T13:43:39.880Z,54.29
2022-09-28T13:46:12.937Z,55.23
2022-09-28T13:48:50.786Z,55.26
2022-09-28T13:51:31.730Z,53.86
2022-09-28T13:54:01.576Z,54.50
2022-09-28T13:56:28.689Z,54.14
2022-09-28T13:59:00.749Z,54.11
2022-09-28T14:01:37.248Z,53.00
2022-09-28T14:04:18.497Z,53.26
2022-09-28T14:07:04.749Z,53.15
2022-09-28T14:09:47.574Z,53.01
2022-09-28T14:12:33.140Z,53.72
2022-09-28T14:15:00.901Z,53.00
2022-09-28T14:17:28.162Z,52.81
2022-09-28T14:19:59.260Z,52.55
2022-09-28T14:22:32.481Z,52.45
2022-09-28T14:25:02.941Z,52.13
2022-09-28T14:27:30.144Z,53.28
2022-09-28T14:30:06.589Z,54.20
2022-09-28T14:32:36.993Z,53.39
2022-09-28T14:35:18.726Z,53.67
2022-09-28T14:38:07.484Z,53.64
2022-09-28T14:41:09.503Z,53.75
2022-09-28T14:43:39.738Z,53.75
2022-09-28T14:46:17.246Z,54.31
2022-09-28T14:48:48.063Z,54.34
2022-09-28T14:51:27.205Z,54.80
2022-09-28T14:53:56.485Z,55.20
2022-09-28T14:56:23.965Z,55.04
2022-09-28T14:58:53.468Z,55.37
2022-09-28T15:01:21.774Z,55.10
2022-09-28T15:03:51.207Z,55.28
2022-09-28T15:06:19.765Z,54.87
2022-09-28T15:08:47.191Z,54.80
2022-09-28T15:11:20.079Z,55.20
2022-09-28T15:13:47.294Z,55.19
2022-09-28T15:16:16.632Z,55.19
2022-09-28T15:19:02.682Z,55.72
2022-09-28T15:21:37.213Z,56.15
2022-09-28T15:24:23.548Z,56.06
2022-09-28T15:26:50.719Z,55.91
2022-09-28T15:29:19.533Z,56.17
2022-09-28T15:31:49.971Z,56.50
2022-09-28T15:34:50.795Z,56.67
2022-09-28T15:37:22.847Z,56.55
2022-09-28T15:39:51.538Z,56.87
2022-09-28T15:42:18.982Z,57.14
2022-09-28T15:45:01.263Z,56.50
2022-09-28T15:47:29.417Z,56.54
2022-09-28T15:49:59.195Z,56.45
2022-09-28T15:52:45.188Z,56.60
2022-09-28T15:55:20.947Z,57.29
2022-09-28T15:57:48.787Z,57.44
2022-09-28T16:00:29.560Z,57.79
2022-09-28T16:03:01.424Z,57.04
2022-09-28T16:05:48.903Z,57.17
2022-09-28T16:08:26.229Z,57.96
2022-09-28T16:10:56.357Z,57.35
2022-09-28T16:13:24.321Z,57.41
2022-09-28T16:15:59.678Z,57.60
2022-09-28T16:18:28.140Z,57.37
2022-09-28T16:20:56.935Z,57.42
2022-09-28T16:23:31.044Z,58.06
2022-09-28T16:26:00.445Z,58.66
2022-09-28T16:28:48.987Z,59.03
2022-09-28T16:31:19.248Z,58.30
2022-09-28T16:34:01.285Z,58.81
2022-09-28T16:36:38.710Z,59.24
2022-09-28T16:39:05.865Z,59.08
2022-09-28T16:41:32.980Z,58.68
2022-09-28T16:44:02.126Z,59.00
2022-09-28T16:46:36.346Z,58.94
2022-09-28T16:49:05.926Z,58.72
2022-09-28T16:51:33.706Z,59.16
2022-09-28T16:54:30.882Z,59.73
2022-09-28T16:56:58.183Z,60.26
2022-09-28T16:59:25.288Z,60.52
2022-09-28T17:01:52.479Z,60.60
2022-09-28T17:04:19.693Z,61.69
2022-09-28T17:06:46.841Z,61.16
2022-09-28T17:09:14.100Z,61.20
2022-09-28T17:11:41.291Z,61.48
2022-09-28T17:14:08.914Z,62.12
2022-09-28T17:17:02.616Z,62.24
2022-09-28T17:19:24.488Z,62.35
2022-09-28T17:21:52.465Z,62.70
2022-09-28T17:24:20.314Z,62.36
2022-09-28T17:26:49.161Z,62.85
2022-09-28T17:29:16.323Z,62.70
2022-09-28T17:31:43.858Z,63.00
2022-09-28T17:34:11.688Z,63.19
2022-09-28T17:36:40.685Z,63.12
2022-09-28T17:39:15.154Z,62.94
2022-09-28T17:41:42.291Z,63.26
2022-09-28T17:44:09.490Z,63.40
2022-09-28T17:46:38.700Z,63.47
2022-09-28T17:49:06.761Z,63.96
2022-09-28T17:51:37.411Z,64.31
2022-09-28T17:54:06.043Z,64.11
2022-09-28T17:56:33.646Z,64.62
2022-09-28T17:59:03.041Z,65.04
2022-09-28T18:01:34.147Z,65.00
2022-09-28T18:04:05.445Z,64.29
2022-09-28T18:06:33.837Z,64.86
2022-09-28T18:09:03.056Z,64.28
2022-09-28T18:11:30.446Z,64.91
2022-09-28T18:13:57.580Z,65.12
2022-09-28T18:16:26.107Z,64.59
2022-09-28T18:18:53.241Z,65.01
2022-09-28T18:21:20.381Z,64.45
2022-09-28T18:23:47.476Z,64.78
2022-09-28T18:26:15.219Z,65.54
2022-09-28T18:28:42.412Z,65.46
2022-09-28T18:31:10.874Z,65.76
2022-09-28T18:33:38.489Z,65.27
2022-09-28T18:36:05.847Z,65.54
2022-09-28T18:38:36.224Z,65.70
2022-09-28T18:41:08.498Z,65.39
2022-09-28T18:43:36.511Z,65.47
2022-09-28T18:46:10.827Z,65.59
2022-09-28T18:48:38.218Z,65.29
2022-09-28T18:51:08.052Z,65.46
2022-09-28T18:53:35.440Z,65.81
2022-09-28T18:56:07.861Z,66.14
2022-09-28T18:58:38.450Z,66.59
2022-09-28T19:01:28.339Z,66.74
2022-09-28T19:03:53.915Z,66.95
2022-09-28T19:06:21.192Z,68.41
2022-09-28T19:08:51.974Z,68.85
2022-09-28T19:11:19.081Z,68.59
2022-09-28T19:13:46.133Z,68.47
2022-09-28T19:16:15.943Z,68.00
2022-09-28T19:18:43.803Z,67.75
2022-09-28T19:21:12.139Z,67.74
2022-09-28T19:23:39.606Z,68.12
2022-09-28T19:26:08.230Z,68.70
2022-09-28T19:28:35.648Z,69.02
2022-09-28T19:31:04.001Z,69.16
2022-09-28T19:33:31.178Z,69.23
2022-09-28T19:36:02.561Z,69.28
2022-09-28T19:38:33.671Z,69.16
2022-09-28T19:41:01.187Z,69.61
2022-09-28T19:43:28.354Z,70.75
2022-09-28T19:45:55.990Z,72.54
2022-09-28T19:48:26.750Z,72.81
2022-09-28T19:50:56.344Z,73.22
2022-09-28T19:53:23.661Z,73.29
2022-09-28T19:55:52.325Z,73.12
2022-09-28T19:58:20.249Z,73.60
2022-09-28T20:00:47.442Z,73.38
2022-09-28T20:03:14.577Z,73.34
2022-09-28T20:05:42.457Z,72.63
2022-09-28T20:08:09.757Z,72.84
2022-09-28T20:10:36.887Z,73.60
2022-09-28T20:13:04.106Z,74.00
2022-09-28T20:15:31.384Z,74.47
2022-09-28T20:17:58.729Z,75.66
2022-09-28T20:20:28.765Z,76.21
2022-09-28T20:22:55.889Z,76.52
2022-09-28T20:25:23.265Z,76.83
2022-09-28T20:27:50.364Z,76.99
2022-09-28T20:30:17.482Z,76.76
2022-09-28T20:32:49.276Z,75.98
2022-09-28T20:35:26.093Z,75.92
2022-09-28T20:38:07.928Z,76.47
2022-09-28T20:40:39.504Z,76.93
2022-09-28T20:43:07.211Z,76.05
2022-09-28T20:45:37.549Z,75.25
2022-09-28T20:48:06.233Z,75.41
2022-09-28T20:50:33.881Z,75.01
2022-09-28T20:53:01.563Z,74.65
2022-09-28T20:55:28.689Z,74.32
2022-09-28T20:57:55.780Z,75.82
2022-09-28T21:00:23.046Z,76.40
2022-09-28T21:02:53.392Z,76.57
2022-09-28T21:05:20.474Z,76.82
2022-09-28T21:07:47.557Z,76.84
2022-09-28T21:10:14.758Z,77.02
2022-09-28T21:12:41.933Z,77.91
2022-09-28T21:15:09.292Z,78.58
2022-09-28T21:17:36.424Z,78.33
2022-09-28T21:20:04.366Z,78.94
2022-09-28T21:22:31.400Z,79.29
2022-09-28T21:24:58.529Z,79.47
2022-09-28T21:27:25.734Z,80.46
2022-09-28T21:29:52.941Z,81.45
2022-09-28T21:32:20.034Z,81.20
2022-09-28T21:34:47.203Z,81.63
2022-09-28T21:37:14.334Z,82.23
2022-09-28T21:39:41.510Z,81.62
2022-09-28T21:42:08.545Z,81.89
2022-09-28T21:44:35.792Z,81.53
2022-09-28T21:47:02.902Z,81.20
2022-09-28T21:49:30.025Z,81.59
2022-09-28T21:51:57.139Z,82.68
2022-09-28T21:54:24.208Z,83.37
2022-09-28T21:56:51.727Z,82.85
2022-09-28T21:59:18.861Z,81.92
2022-09-28T22:01:48.767Z,81.36
2022-09-28T22:04:15.887Z,80.69
2022-09-28T22:06:42.954Z,80.05
2022-09-28T22:09:13.139Z,80.74
2022-09-28T22:11:40.431Z,81.30
2022-09-28T22:14:09.597Z,82.16
2022-09-28T22:16:38.586Z,82.37
2022-09-28T22:19:05.738Z,81.63
2022-09-28T22:21:34.609Z,82.38
2022-09-28T22:24:02.930Z,82.96
2022-09-28T22:26:31.715Z,85.16
2022-09-28T22:28:59.871Z,86.22
2022-09-28T22:31:28.784Z,87.58
2022-09-28T22:33:56.539Z,86.53
2022-09-28T22:36:23.631Z,87.88
2022-09-28T22:38:50.728Z,88.17
2022-09-28T22:41:20.463Z,87.24
2022-09-28T22:43:48.315Z,85.99
2022-09-28T22:46:16.978Z,85.60
2022-09-28T22:48:47.923Z,85.17
2022-09-28T22:51:15.767Z,84.50
2022-09-28T22:53:43.303Z,82.66
2022-09-28T22:56:13.560Z,82.38
2022-09-28T22:58:43.226Z,82.86
2022-09-28T23:01:11.941Z,82.47
2022-09-28T23:03:42.692Z,82.79
2022-09-28T23:06:10.901Z,82.96
2022-09-28T23:08:38.539Z,83.65
2022-09-28T23:11:06.169Z,82.49
2022-09-28T23:13:33.643Z,81.94
2022-09-28T23:16:02.378Z,81.32
2022-09-28T23:18:31.423Z,81.22
2022-09-28T23:20:59.914Z,81.74
2022-09-28T23:23:27.117Z,81.48
2022-09-28T23:25:54.645Z,82.03
2022-09-28T23:28:22.554Z,83.15
2022-09-28T23:30:49.785Z,82.50
2022-09-28T23:33:17.707Z,82.09
2022-09-28T23:35:45.223Z,82.44
2022-09-28T23:38:13.656Z,82.49
2022-09-28T23:40:41.322Z,82.70
2022-09-28T23:43:08.758Z,82.17
2022-09-28T23:45:36.097Z,82.53
2022-09-28T23:48:03.657Z,84.34
2022-09-28T23:50:30.714Z,85.13
2022-09-28T23:52:57.792Z,84.61
2022-09-28T23:55:24.835Z,84.22
2022-09-28T23:57:55.463Z,83.94
